Time;durP1;ratioP1;P1;durP2;ratioP2;P2;SDS_P1;SDS_P2;PMS_P1;PMS_P2;Temp;Humidity;BMP_temperature;BMP_pressure;BME280_temperature;BME280_humidity;BME280_pressure;Samples;Min_cycle;Max_cycle;Signal;HPM_P1;HPM_P2
2022/02/07 00:00:19;;;;;;;1.30;0.60;;;;;;;2.54;100.00;97219.63;5086171;28;20677;-65
2022/02/07 00:03:06;;;;;;;0.80;0.60;;;;;;;2.55;100.00;97218.72;5084872;28;20234;-69
2022/02/07 00:05:36;;;;;;;0.50;0.50;;;;;;;2.65;100.00;97225.16;5083406;28;20215;-69
2022/02/07 00:08:03;;;;;;;0.53;0.53;;;;;;;2.69;100.00;97211.00;5084343;28;20264;-70
2022/02/07 00:10:29;;;;;;;0.87;0.70;;;;;;;2.71;100.00;97211.78;5086199;28;20250;-68
2022/02/07 00:12:56;;;;;;;1.63;0.63;;;;;;;2.73;100.00;97209.91;5082642;28;20216;-68
2022/02/07 00:15:23;;;;;;;2.13;0.50;;;;;;;2.73;100.00;97190.81;5082938;28;20204;-68
2022/02/07 00:17:49;;;;;;;0.97;0.80;;;;;;;2.79;100.00;97186.13;5085922;28;20210;-64
2022/02/07 00:20:18;;;;;;;0.60;0.57;;;;;;;2.95;100.00;97213.06;5085818;28;20668;-65
2022/02/07 00:22:46;;;;;;;0.83;0.50;;;;;;;2.99;100.00;97230.25;5074876;28;20243;-63
2022/02/07 00:25:14;;;;;;;0.63;0.50;;;;;;;3.02;100.00;97256.19;5083218;28;20215;-63
2022/02/07 00:27:40;;;;;;;0.67;0.67;;;;;;;3.07;100.00;97269.00;5086016;28;20207;-62
2022/02/07 00:30:10;;;;;;;0.97;0.60;;;;;;;3.08;100.00;97270.69;5086134;28;20215;-63
2022/02/07 00:32:36;;;;;;;0.93;0.63;;;;;;;3.05;100.00;97263.84;5074476;28;20223;-62
2022/02/07 00:35:03;;;;;;;2.00;0.60;;;;;;;3.05;100.00;97257.81;5082622;28;20222;-62
2022/02/07 00:37:31;;;;;;;1.07;0.70;;;;;;;3.02;100.00;97256.19;5085844;28;20218;-62
2022/02/07 00:40:13;;;;;;;0.50;0.50;;;;;;;3.05;100.00;97261.22;5085856;28;20214;-62
2022/02/07 00:42:40;;;;;;;0.90;0.67;;;;;;;3.08;100.00;97247.19;5082058;28;20300;-62
2022/02/07 00:45:24;;;;;;;0.60;0.60;;;;;;;3.07;100.00;97251.53;5084716;28;20218;-62
2022/02/07 00:47:50;;;;;;;0.80;0.80;;;;;;;2.98;100.00;97248.59;5085664;28;20295;-62
2022/02/07 00:50:17;;;;;;;0.63;0.60;;;;;;;2.97;100.00;97247.75;5081932;28;20290;-61
2022/02/07 00:52:43;;;;;;;1.37;0.50;;;;;;;2.91;100.00;97228.97;5082633;28;20219;-61
2022/02/07 00:55:11;;;;;;;0.60;0.60;;;;;;;2.89;100.00;97255.13;5085684;28;20214;-61
2022/02/07 00:57:37;;;;;;;1.13;0.60;;;;;;;2.89;100.00;97260.34;5085379;28;20210;-61
2022/02/07 01:00:05;;;;;;;0.60;0.60;;;;;;;2.90;100.00;97280.31;5079971;28;20223;-62
2022/02/07 01:02:31;;;;;;;1.07;0.60;;;;;;;2.89;100.00;97290.84;5082129;28;20613;-63
2022/02/07 01:04:58;;;;;;;0.80;0.60;;;;;;;2.87;100.00;97295.31;5085252;28;20214;-62
2022/02/07 01:07:27;;;;;;;2.50;0.70;;;;;;;2.88;100.00;97302.22;5085355;28;20211;-62
2022/02/07 01:09:55;;;;;;;0.70;0.63;;;;;;;2.89;100.00;97294.28;5081895;28;20268;-62
2022/02/07 01:12:38;;;;;;;0.73;0.57;;;;;;;2.86;100.00;97301.41;5082187;28;20221;-62
2022/02/07 01:15:17;;;;;;;0.80;0.60;;;;;;;2.81;100.00;97304.28;5082528;28;20243;-62
2022/02/07 01:23:36;;;;;;;0.60;0.60;;;;;;;2.79;100.00;97353.09;5081623;28;20245;-63
2022/02/07 01:48:30;;;;;;;0.77;0.67;;;;;;;3.22;100.00;97424.81;5071314;28;20593;-63
2022/02/07 01:51:10;;;;;;;1.17;1.00;;;;;;;3.30;100.00;97428.72;5085593;28;20309;-63
2022/02/07 01:53:48;;;;;;;1.10;0.43;;;;;;;3.36;100.00;97448.47;5085270;28;20211;-63
2022/02/07 01:56:15;;;;;;;0.50;0.50;;;;;;;3.44;100.00;97468.06;5074566;28;20748;-64
2022/02/07 01:58:41;;;;;;;0.70;0.70;;;;;;;3.53;100.00;97478.00;5084760;28;20221;-63
2022/02/07 02:01:09;;;;;;;0.63;0.60;;;;;;;3.49;100.00;97481.69;5082117;28;20217;-64
2022/02/07 02:03:35;;;;;;;1.20;0.50;;;;;;;3.56;100.00;97492.69;5083049;28;20246;-62
2022/02/07 02:06:07;;;;;;;0.70;0.60;;;;;;;3.55;100.00;97504.06;5085822;28;20306;-63
2022/02/07 02:08:33;;;;;;;2.00;0.70;;;;;;;3.48;100.00;97527.03;5081995;28;20223;-64
2022/02/07 02:11:01;;;;;;;1.37;0.67;;;;;;;3.44;100.00;97538.56;5081894;28;20250;-63
2022/02/07 02:13:38;;;;;;;2.37;0.67;;;;;;;3.44;100.00;97528.13;5085867;28;20211;-63
2022/02/07 02:16:11;;;;;;;1.00;0.90;;;;;;;3.42;100.00;97543.00;5088393;28;20218;-64
2022/02/07 02:19:21;;;;;;;2.43;0.70;;;;;;;3.34;100.00;97554.75;5083683;28;20227;-64
2022/02/07 02:33:19;;;;;;;1.50;1.00;;;;;;;3.06;100.00;97563.09;5084268;28;20230;-64
2022/02/07 02:36:10;;;;;;;1.00;0.70;;;;;;;3.17;100.00;97571.25;5076143;28;20243;-64
2022/02/07 02:38:50;;;;;;;1.20;0.90;;;;;;;3.16;100.00;97577.41;5078704;28;20257;-64
2022/02/07 02:46:46;;;;;;;1.80;0.70;;;;;;;3.31;100.00;97618.41;5072572;28;20265;-64
2022/02/07 02:49:12;;;;;;;2.93;0.80;;;;;;;3.35;100.00;97646.09;5087848;28;20584;-64
2022/02/07 02:51:39;;;;;;;3.27;0.80;;;;;;;3.43;100.00;97646.56;5087485;28;20222;-64
2022/02/07 02:54:06;;;;;;;1.30;0.63;;;;;;;3.29;100.00;97643.78;5084439;28;20219;-64
2022/02/07 02:56:34;;;;;;;2.50;0.87;;;;;;;3.25;100.00;97654.44;5083822;28;20242;-64
2022/02/07 02:59:00;;;;;;;0.70;0.70;;;;;;;3.11;100.00;97667.31;5069926;28;20684;-64
2022/02/07 03:01:27;;;;;;;2.47;0.90;;;;;;;2.91;100.00;97660.41;5087494;28;20215;-64
2022/02/07 03:03:53;;;;;;;1.07;0.90;;;;;;;2.61;100.00;97654.00;5084208;28;20250;-63
2022/02/07 03:06:20;;;;;;;3.00;1.20;;;;;;;2.44;100.00;97689.56;5083664;28;20215;-63
2022/02/07 03:08:47;;;;;;;0.90;0.80;;;;;;;2.21;100.00;97692.34;5085961;28;20215;-69
2022/02/07 03:11:16;;;;;;;2.17;1.20;;;;;;;1.99;100.00;97692.41;5086647;28;20676;-74
2022/02/07 03:13:51;;;;;;;2.40;1.00;;;;;;;1.94;100.00;97702.16;5082040;28;20276;-63
2022/02/07 03:16:38;;;;;;;1.93;1.30;;;;;;;1.97;100.00;97704.63;5083955;28;20218;-62
2022/02/07 03:19:05;;;;;;;0.93;0.80;;;;;;;2.10;100.00;97707.59;5087306;28;20211;-62
2022/02/07 03:21:32;;;;;;;1.93;1.30;;;;;;;2.11;100.00;97712.75;5084764;28;20210;-61
2022/02/07 03:23:58;;;;;;;2.03;1.10;;;;;;;2.19;100.00;97715.84;5083289;28;20242;-61
2022/02/07 03:26:25;;;;;;;2.23;1.00;;;;;;;2.38;100.00;97719.34;5086240;28;20217;-61
2022/02/07 03:28:53;;;;;;;2.03;1.23;;;;;;;2.47;100.00;97781.56;5086669;28;20221;-61
2022/02/07 03:31:21;;;;;;;1.00;0.70;;;;;;;2.26;100.00;97816.34;5084915;28;20211;-60
2022/02/07 03:33:48;;;;;;;3.13;1.00;;;;;;;1.73;100.00;97816.84;5083243;28;20212;-62
2022/02/07 03:36:15;;;;;;;1.43;0.63;;;;;;;1.48;100.00;97835.16;5084157;28;20219;-62
2022/02/07 03:38:42;;;;;;;1.50;0.90;;;;;;;1.47;100.00;97837.84;5086728;28;20583;-73
2022/02/07 03:41:09;;;;;;;1.37;0.80;;;;;;;1.37;100.00;97841.69;5084300;28;20222;-70
2022/02/07 03:43:35;;;;;;;0.63;0.63;;;;;;;1.36;100.00;97838.22;5082748;28;20623;-69
2022/02/07 03:46:04;;;;;;;1.30;0.70;;;;;;;1.37;100.00;97858.16;5085624;28;20237;-68
2022/02/07 03:48:31;;;;;;;0.70;0.70;;;;;;;1.31;100.00;97862.72;5086878;28;20239;-66
2022/02/07 03:50:57;;;;;;;1.03;0.80;;;;;;;1.34;100.00;97868.66;5084188;28;20221;-64
2022/02/07 03:53:24;;;;;;;1.87;0.70;;;;;;;1.39;100.00;97871.97;5082018;28;20559;-64
2022/02/07 03:55:52;;;;;;;0.80;0.70;;;;;;;1.41;100.00;97885.75;5085273;28;20223;-64
2022/02/07 03:58:21;;;;;;;3.03;1.07;;;;;;;1.40;100.00;97912.72;5086075;28;20207;-62
2022/02/07 04:00:48;;;;;;;0.80;0.60;;;;;;;1.45;100.00;97900.38;5082912;28;20218;-62
2022/02/07 04:03:16;;;;;;;0.90;0.80;;;;;;;1.38;100.00;97901.50;5081853;28;20712;-61
2022/02/07 04:05:48;;;;;;;1.67;0.70;;;;;;;1.38;100.00;97922.34;5085322;28;20223;-62
2022/02/07 04:08:16;;;;;;;0.73;0.73;;;;;;;1.28;100.00;97918.34;5086029;28;20210;-61
2022/02/07 04:10:54;;;;;;;1.53;0.67;;;;;;;1.15;100.00;97930.13;5083495;28;20218;-61
2022/02/07 04:13:27;;;;;;;2.03;0.70;;;;;;;1.12;100.00;97951.03;5083118;28;20305;-62
2022/02/07 04:15:55;;;;;;;1.63;1.00;;;;;;;1.07;100.00;97946.91;5086035;28;20256;-62
2022/02/07 04:18:25;;;;;;;1.20;0.80;;;;;;;0.96;100.00;97965.47;5085124;28;20305;-62
2022/02/07 04:20:51;;;;;;;1.03;0.80;;;;;;;0.87;100.00;97970.97;5082307;28;20298;-62
2022/02/07 04:23:18;;;;;;;1.40;0.80;;;;;;;0.78;100.00;97976.50;5083781;28;20246;-62
2022/02/07 04:25:45;;;;;;;1.37;0.80;;;;;;;0.90;100.00;97976.09;5086085;28;20229;-62
2022/02/07 04:28:11;;;;;;;1.03;0.70;;;;;;;0.86;100.00;97984.91;5083452;28;20214;-63
2022/02/07 04:30:38;;;;;;;1.10;0.80;;;;;;;0.88;100.00;97998.72;5082210;28;20214;-63
2022/02/07 04:33:04;;;;;;;0.80;0.80;;;;;;;1.00;100.00;98008.69;5083281;28;20211;-62
2022/02/07 04:35:32;;;;;;;1.13;0.80;;;;;;;1.03;100.00;98016.41;5085937;28;20214;-63
2022/02/07 04:37:59;;;;;;;1.00;0.90;;;;;;;1.04;100.00;98020.72;5085029;28;20218;-63
2022/02/07 04:40:25;;;;;;;0.70;0.70;;;;;;;1.07;100.00;98038.84;5081843;28;20223;-63
2022/02/07 04:42:53;;;;;;;1.17;0.80;;;;;;;1.07;100.00;98053.59;5082864;28;20238;-63
2022/02/07 04:45:34;;;;;;;1.53;0.83;;;;;;;0.99;100.00;98063.41;5085469;28;20684;-63
2022/02/07 04:48:24;;;;;;;2.63;0.90;;;;;;;0.91;100.00;98070.59;5083942;28;20234;-63
2022/02/07 04:51:08;;;;;;;1.63;0.80;;;;;;;0.94;100.00;98081.78;5083792;28;20223;-63
2022/02/07 04:53:53;;;;;;;0.97;0.80;;;;;;;0.90;100.00;98080.16;5083915;28;20241;-63
2022/02/07 04:57:02;;;;;;;1.10;0.87;;;;;;;0.65;100.00;98078.38;5076734;28;20589;-63
2022/02/07 04:59:10;;;;;;;1.73;0.90;;;;;;;0.56;100.00;98084.69;5070018;28;20246;-63
2022/02/07 05:01:46;;;;;;;2.40;0.90;;;;;;;0.48;100.00;98089.28;5084933;28;20215;-63
2022/02/07 05:04:24;;;;;;;1.37;0.77;;;;;;;0.43;100.00;98098.97;5083072;28;20765;-63
2022/02/07 05:15:04;;;;;;;5.37;1.20;;;;;;;0.66;100.00;98132.09;5087398;28;20218;-64
2022/02/07 05:17:32;;;;;;;3.20;1.50;;;;;;;0.63;100.00;98143.44;5087448;28;20218;-64
2022/02/07 05:19:58;;;;;;;1.60;1.00;;;;;;;0.66;100.00;98155.50;5084189;28;20211;-64
2022/02/07 05:22:30;;;;;;;6.17;1.43;;;;;;;0.67;100.00;98165.84;5088202;28;20217;-64
2022/02/07 05:24:56;;;;;;;5.83;1.13;;;;;;;0.67;100.00;98165.84;5089207;28;20242;-64
2022/02/07 05:27:23;;;;;;;5.50;1.23;;;;;;;0.66;100.00;98169.34;5087029;28;20579;-64
2022/02/07 05:29:49;;;;;;;3.57;1.30;;;;;;;0.84;100.00;98181.81;5085237;28;20681;-64
2022/02/07 05:32:17;;;;;;;5.93;1.30;;;;;;;0.99;100.00;98191.75;5088278;28;20216;-64
2022/02/07 05:34:43;;;;;;;2.37;1.20;;;;;;;1.13;100.00;98202.59;5088905;28;20279;-65
2022/02/07 05:37:12;;;;;;;4.50;1.40;;;;;;;1.27;100.00;98205.63;5087114;28;20242;-65
2022/02/07 05:39:41;;;;;;;8.63;1.37;;;;;;;1.30;100.00;98215.91;5085447;28;20230;-65
2022/02/07 05:42:08;;;;;;;5.27;1.40;;;;;;;1.34;100.00;98227.94;5088228;28;20297;-66
2022/02/07 05:44:37;;;;;;;4.17;1.40;;;;;;;1.28;100.00;98233.34;5088538;28;20262;-65
2022/02/07 05:47:05;;;;;;;1.43;1.00;;;;;;;1.19;100.00;98232.78;5085401;28;20277;-65
2022/02/07 05:49:31;;;;;;;3.23;0.90;;;;;;;1.02;100.00;98235.03;5085254;28;20604;-64
2022/02/07 05:51:58;;;;;;;2.93;1.23;;;;;;;0.97;100.00;98240.38;5088237;28;20222;-64
2022/02/07 05:54:25;;;;;;;6.07;1.60;;;;;;;0.96;100.00;98246.50;5088630;28;20207;-64
2022/02/07 05:56:53;;;;;;;3.13;1.00;;;;;;;0.93;100.00;98249.16;5086786;28;20211;-65
2022/02/07 05:59:19;;;;;;;2.77;1.00;;;;;;;1.01;100.00;98251.56;5085104;28;20588;-64
2022/02/07 06:01:46;;;;;;;4.63;1.33;;;;;;;1.07;100.00;98260.03;5087445;28;20219;-64
2022/02/07 06:04:12;;;;;;;5.17;1.33;;;;;;;1.22;100.00;98269.97;5088293;28;20716;-64
2022/02/07 06:06:39;;;;;;;2.93;1.10;;;;;;;1.29;100.00;98268.88;5086939;28;20214;-65
2022/02/07 06:09:07;;;;;;;3.07;1.20;;;;;;;1.38;100.00;98278.19;5084808;28;20235;-65
2022/02/07 06:11:34;;;;;;;3.77;1.20;;;;;;;1.44;100.00;98288.41;5085730;28;20215;-65
2022/02/07 06:14:02;;;;;;;4.50;1.13;;;;;;;1.54;100.00;98298.47;5088448;28;20233;-65
2022/02/07 06:16:31;;;;;;;4.17;1.30;;;;;;;1.59;100.00;98301.81;5085763;28;20221;-65
2022/02/07 06:19:01;;;;;;;4.93;1.60;;;;;;;1.56;100.00;98299.31;5084669;28;20239;-65
2022/02/07 06:21:29;;;;;;;2.67;1.20;;;;;;;1.47;100.00;98296.97;5082302;28;20574;-65
2022/02/07 06:23:56;;;;;;;5.80;2.43;;;;;;;1.55;100.00;98310.63;5088232;28;20231;-66
2022/02/07 06:26:22;;;;;;;2.77;1.23;;;;;;;1.65;100.00;98327.66;5085770;28;20233;-66
2022/02/07 06:28:49;;;;;;;1.83;1.10;;;;;;;1.74;100.00;98323.91;5084414;28;20215;-66
2022/02/07 06:31:16;;;;;;;2.90;1.10;;;;;;;1.80;100.00;98324.59;5086996;28;20222;-66
2022/02/07 06:33:43;;;;;;;2.40;1.20;;;;;;;1.84;100.00;98344.41;5088105;28;20215;-66
2022/02/07 06:36:09;;;;;;;2.50;1.10;;;;;;;1.89;100.00;98347.75;5086006;28;20219;-66
2022/02/07 06:38:36;;;;;;;3.00;1.47;;;;;;;1.91;100.00;98356.34;5082817;28;20224;-66
2022/02/07 06:41:02;;;;;;;3.57;1.30;;;;;;;1.79;100.00;98348.09;5086536;28;20241;-66
2022/02/07 06:43:29;;;;;;;6.27;1.13;;;;;;;1.58;100.00;98357.41;5087971;28;20257;-66
2022/02/07 06:45:55;;;;;;;2.40;1.50;;;;;;;1.36;100.00;98371.94;5086582;28;20210;-66
2022/02/07 06:48:23;;;;;;;4.13;1.30;;;;;;;1.34;100.00;98373.75;5084469;28;20580;-65
2022/02/07 06:50:49;;;;;;;2.30;1.30;;;;;;;1.36;100.00;98371.94;5085831;28;20252;-65
2022/02/07 06:53:16;;;;;;;1.57;1.30;;;;;;;1.48;100.00;98386.38;5087841;28;20235;-66
2022/02/07 06:55:42;;;;;;;3.60;1.33;;;;;;;1.64;100.00;98391.09;5086819;28;20575;-66
2022/02/07 06:58:09;;;;;;;3.20;1.47;;;;;;;1.75;100.00;98396.84;5083900;28;20313;-65
2022/02/07 07:00:36;;;;;;;4.50;2.13;;;;;;;1.87;100.00;98412.09;5085365;28;20224;-65
2022/02/07 07:03:02;;;;;;;2.60;1.10;;;;;;;1.91;100.00;98418.91;5085840;28;20583;-66
2022/02/07 07:05:31;;;;;;;3.87;1.07;;;;;;;1.99;100.00;98423.88;5087156;28;20242;-66
2022/02/07 07:07:58;;;;;;;8.23;1.63;;;;;;;2.00;100.00;98438.63;5083770;28;20554;-66
2022/02/07 07:10:25;;;;;;;2.13;1.50;;;;;;;2.02;100.00;98448.09;5084966;28;20241;-65
2022/02/07 07:13:00;;;;;;;2.60;1.60;;;;;;;2.01;100.00;98450.75;5087355;28;20221;-66
2022/02/07 07:15:36;;;;;;;4.20;1.53;;;;;;;2.01;100.00;98451.63;5084173;28;20217;-65
2022/02/07 07:18:03;;;;;;;5.27;1.30;;;;;;;2.03;100.00;98452.41;5083263;28;20621;-66
2022/02/07 07:20:31;;;;;;;4.17;1.60;;;;;;;1.97;100.00;98455.19;5086779;28;20583;-66
2022/02/07 07:22:59;;;;;;;5.53;2.13;;;;;;;1.75;100.00;98448.94;5087018;28;20221;-66
2022/02/07 07:25:25;;;;;;;3.93;1.20;;;;;;;1.57;100.00;98465.09;5084370;28;20273;-66
2022/02/07 07:27:59;;;;;;;6.30;1.63;;;;;;;1.45;100.00;98465.44;5082319;28;20215;-66
2022/02/07 07:30:29;;;;;;;4.40;1.40;;;;;;;1.35;100.00;98474.41;5068219;28;20715;-66
2022/02/07 07:33:01;;;;;;;4.03;1.87;;;;;;;1.39;100.00;98478.63;5087024;28;20215;-66
2022/02/07 07:35:27;;;;;;;3.17;1.50;;;;;;;1.42;100.00;98482.91;5072564;28;20294;-66
2022/02/07 07:37:55;;;;;;;5.00;1.70;;;;;;;1.50;100.00;98489.63;5084073;28;20226;-66
2022/02/07 07:40:22;;;;;;;4.30;1.50;;;;;;;1.54;100.00;98485.19;5086717;28;20218;-66
2022/02/07 07:42:53;;;;;;;3.17;1.50;;;;;;;1.45;100.00;98481.06;5086697;28;20215;-66
2022/02/07 07:45:22;;;;;;;5.77;1.53;;;;;;;1.40;100.00;98488.16;5082951;28;20250;-66
2022/02/07 07:47:51;;;;;;;6.60;2.17;;;;;;;1.32;100.00;98490.13;5084218;28;20785;-66
2022/02/07 07:50:18;;;;;;;5.27;2.00;;;;;;;1.35;100.00;98490.03;5086726;28;20214;-65
2022/02/07 07:53:02;;;;;;;5.33;1.43;;;;;;;1.39;100.00;98498.59;5085801;28;20216;-66
2022/02/07 08:03:43;;;;;;;3.33;1.50;;;;;;;1.54;100.00;98526.84;5084884;28;20212;-66
2022/02/07 08:06:14;;;;;;;3.57;1.60;;;;;;;1.55;100.00;98532.03;5086478;28;20244;-65
2022/02/07 08:08:47;;;;;;;3.97;1.40;;;;;;;1.51;100.00;98535.59;5083881;28;20219;-65
2022/02/07 08:11:16;;;;;;;3.20;1.30;;;;;;;1.51;100.00;98533.00;5082648;28;20298;-65
2022/02/07 08:13:45;;;;;;;7.77;1.50;;;;;;;1.57;100.00;98545.84;5086054;28;20202;-65
2022/02/07 08:16:12;;;;;;;7.83;1.97;;;;;;;1.52;100.00;98555.53;5086357;28;20232;-65
2022/02/07 08:18:38;;;;;;;7.23;1.60;;;;;;;1.53;100.00;98557.25;5082412;28;20219;-65
2022/02/07 08:21:05;;;;;;;2.17;1.10;;;;;;;1.63;100.00;98574.34;5080885;28;20219;-66
2022/02/07 08:23:33;;;;;;;6.70;1.60;;;;;;;1.73;100.00;98578.38;5085839;28;20737;-65
2022/02/07 08:26:02;;;;;;;4.63;1.93;;;;;;;1.81;100.00;98589.47;5085711;28;20217;-66
2022/02/07 08:28:30;;;;;;;2.97;1.63;;;;;;;1.92;100.00;98597.88;5082310;28;20293;-65
2022/02/07 08:30:56;;;;;;;5.23;1.50;;;;;;;1.99;100.00;98599.41;5082676;28;20211;-65
2022/02/07 08:33:23;;;;;;;4.33;1.30;;;;;;;2.02;100.00;98603.66;5086029;28;20217;-65
2022/02/07 08:35:49;;;;;;;6.27;1.60;;;;;;;1.98;100.00;98602.91;5085927;28;20214;-65
2022/02/07 08:38:17;;;;;;;4.53;1.33;;;;;;;1.98;100.00;98609.84;5081991;28;20219;-65
2022/02/07 08:40:43;;;;;;;5.33;2.00;;;;;;;1.97;100.00;98614.19;5082186;28;20211;-65
2022/02/07 08:43:10;;;;;;;2.47;1.30;;;;;;;1.91;100.00;98616.97;5085868;28;20215;-65
2022/02/07 08:45:39;;;;;;;4.33;1.57;;;;;;;1.94;100.00;98640.38;5085440;28;20238;-66
2022/02/07 08:48:06;;;;;;;3.03;1.67;;;;;;;1.98;100.00;98649.81;5080997;28;20235;-65
2022/02/07 08:50:34;;;;;;;4.23;1.73;;;;;;;2.07;100.00;98654.78;5080539;28;20302;-66
2022/02/07 08:53:02;;;;;;;5.00;1.80;;;;;;;2.37;100.00;98658.25;5085410;28;20250;-66
2022/02/07 08:55:33;;;;;;;6.13;1.53;;;;;;;2.80;100.00;98663.94;5073393;28;20295;-65
2022/02/07 08:58:03;;;;;;;3.63;1.40;;;;;;;3.09;100.00;98667.38;5074627;28;20669;-65
2022/02/07 09:00:48;;;;;;;3.13;1.40;;;;;;;3.21;100.00;98661.78;5081465;28;20233;-65
2022/02/07 09:03:30;;;;;;;5.70;1.60;;;;;;;3.32;100.00;98680.59;5083687;28;20214;-65
2022/02/07 09:06:12;;;;;;;4.23;1.53;;;;;;;3.47;100.00;98685.31;5063610;28;20285;-65
2022/02/07 09:08:53;;;;;;;4.63;1.50;;;;;;;3.48;100.00;98684.41;5088602;28;20221;-65
2022/02/07 09:11:20;;;;;;;5.47;1.60;;;;;;;3.53;100.00;98682.50;5088947;28;20580;-65
2022/02/07 09:13:47;;;;;;;5.23;2.10;;;;;;;3.59;100.00;98694.50;5077813;28;20222;-65
2022/02/07 09:16:29;;;;;;;4.07;1.43;;;;;;;3.56;100.00;98692.81;5086405;28;20245;-66
2022/02/07 09:18:58;;;;;;;4.77;1.77;;;;;;;3.49;100.00;98698.31;5084253;28;20211;-65
2022/02/07 09:21:25;;;;;;;5.07;1.60;;;;;;;3.30;100.00;98708.50;5082805;28;20675;-65
2022/02/07 09:23:52;;;;;;;5.00;1.70;;;;;;;3.22;100.00;98713.09;5088153;28;20222;-66
2022/02/07 09:26:19;;;;;;;3.43;1.63;;;;;;;3.23;100.00;98716.56;5087752;28;20233;-65
2022/02/07 09:28:45;;;;;;;5.50;1.60;;;;;;;3.42;100.00;98729.00;5089314;28;20241;-66
2022/02/07 09:31:12;;;;;;;2.20;1.57;;;;;;;3.37;100.00;98719.63;5089765;28;20245;-66
2022/02/07 09:33:40;;;;;;;5.20;1.40;;;;;;;3.23;100.00;98722.66;5087924;28;20222;-67
2022/02/07 09:36:08;;;;;;;7.13;1.70;;;;;;;3.34;100.00;98724.91;5087928;28;20215;-66
2022/02/07 09:38:34;;;;;;;7.17;1.67;;;;;;;3.52;100.00;98735.66;5089944;28;20215;-65
2022/02/07 09:41:01;;;;;;;4.67;1.57;;;;;;;3.80;99.00;98728.63;5086961;28;20215;-66
2022/02/07 09:43:33;;;;;;;6.50;1.93;;;;;;;3.90;99.62;98737.88;5088707;28;20211;-66
2022/02/07 09:46:06;;;;;;;4.47;1.90;;;;;;;4.00;99.57;98728.84;5088247;28;20263;-65
2022/02/07 09:48:34;;;;;;;3.10;1.70;;;;;;;4.01;98.87;98740.13;5088469;28;20246;-65
2022/02/07 09:51:01;;;;;;;5.07;1.70;;;;;;;4.16;99.73;98750.94;5088481;28;20222;-65
2022/02/07 09:53:30;;;;;;;5.57;1.47;;;;;;;4.27;96.31;98766.28;5065111;28;20228;-66
2022/02/07 09:55:57;;;;;;;5.47;2.43;;;;;;;4.37;95.97;98760.69;5064136;28;20737;-65
2022/02/07 09:58:24;;;;;;;4.03;1.70;;;;;;;4.28;96.30;98766.22;5085529;28;20229;-65
2022/02/07 10:00:50;;;;;;;5.60;1.73;;;;;;;4.28;93.43;98773.22;5090413;28;20211;-65
2022/02/07 10:03:21;;;;;;;5.80;1.80;;;;;;;4.41;96.81;98785.81;5088313;28;20555;-66
2022/02/07 10:05:52;;;;;;;6.80;1.77;;;;;;;4.50;94.84;98782.91;5060222;28;20258;-66
2022/02/07 10:08:33;;;;;;;4.13;1.60;;;;;;;4.56;95.11;98798.38;5072427;28;20689;-66
2022/02/07 10:11:20;;;;;;;6.20;1.47;;;;;;;4.65;93.42;98795.44;5086483;28;20218;-66
2022/02/07 10:13:54;;;;;;;4.33;1.60;;;;;;;4.73;93.04;98790.81;5066319;28;20622;-67
2022/02/07 10:16:39;;;;;;;4.33;1.73;;;;;;;4.84;92.03;98793.88;5083049;28;20211;-66
2022/02/07 10:19:18;;;;;;;5.17;1.70;;;;;;;4.77;90.28;98808.09;5088940;28;20218;-65
2022/02/07 10:36:12;;;;;;;5.17;1.47;;;;;;;5.12;87.64;98833.03;5069935;28;20238;-65
2022/02/07 10:38:55;;;;;;;3.03;1.43;;;;;;;5.11;87.51;98850.50;5090282;28;20274;-66
2022/02/07 10:41:40;;;;;;;7.63;1.70;;;;;;;5.21;89.44;98851.91;5066374;28;20708;-66
2022/02/07 10:44:32;;;;;;;4.53;1.37;;;;;;;5.20;86.99;98844.09;5088861;28;20256;-66
2022/02/07 10:47:05;;;;;;;5.20;1.83;;;;;;;5.32;87.85;98854.13;5087172;28;20244;-65
2022/02/07 10:49:31;;;;;;;5.67;1.83;;;;;;;5.37;85.67;98849.56;5085617;28;20291;-66
2022/02/07 10:51:59;;;;;;;4.30;1.50;;;;;;;5.58;86.88;98857.47;5085534;28;20213;-66
2022/02/07 10:54:28;;;;;;;6.43;1.50;;;;;;;5.79;84.42;98855.78;5083330;28;20216;-66
2022/02/07 10:56:56;;;;;;;4.47;1.60;;;;;;;5.65;82.73;98864.19;5065230;28;20205;-66
2022/02/07 10:59:24;;;;;;;6.80;1.60;;;;;;;5.66;83.20;98886.00;5087491;28;20219;-66
2022/02/07 11:04:44;;;;;;;2.63;1.60;;;;;;;5.60;84.44;98907.22;5070354;28;20318;-66
2022/02/07 11:07:12;;;;;;;4.97;1.53;;;;;;;5.45;83.26;98902.56;5065114;28;20217;-66
2022/02/07 11:09:42;;;;;;;4.63;1.87;;;;;;;5.52;85.32;98917.16;5065674;28;20216;-66
2022/02/07 11:12:23;;;;;;;8.60;2.90;;;;;;;5.42;84.91;98924.50;5072250;28;20679;-66
2022/02/07 11:15:00;;;;;;;2.50;1.50;;;;;;;5.33;85.02;98923.97;5068253;28;20270;-65
2022/02/07 11:17:40;;;;;;;6.27;1.50;;;;;;;5.26;84.76;98927.72;5072189;28;20209;-65
2022/02/07 11:20:31;;;;;;;3.20;1.60;;;;;;;5.15;85.16;98929.88;5071147;28;20221;-66
2022/02/07 11:23:17;;;;;;;5.50;1.50;;;;;;;4.94;85.16;98951.56;5064310;28;20225;-64
2022/02/07 11:25:49;;;;;;;3.87;1.70;;;;;;;4.91;85.57;98957.78;5086503;28;20239;-65
2022/02/07 11:28:24;;;;;;;6.07;1.60;;;;;;;4.88;85.26;98967.50;5090074;28;20228;-63
2022/02/07 11:30:53;;;;;;;3.13;1.40;;;;;;;4.83;86.80;98975.47;5090544;28;20225;-63
2022/02/07 11:33:32;;;;;;;3.73;1.60;;;;;;;4.89;85.28;98980.53;5080401;28;20281;-64
2022/02/07 11:35:59;;;;;;;5.90;1.60;;;;;;;4.81;85.93;98972.06;5087154;28;20217;-64
2022/02/07 11:38:26;;;;;;;5.27;1.57;;;;;;;4.77;84.52;98970.44;5090108;28;20265;-64
2022/02/07 11:41:01;;;;;;;3.83;1.87;;;;;;;4.79;86.35;98983.50;5091334;28;20220;-65
2022/02/07 11:43:31;;;;;;;3.97;1.33;;;;;;;4.80;83.99;98993.94;5090592;28;20298;-66
2022/02/07 11:45:59;;;;;;;5.47;1.90;;;;;;;4.76;84.86;98997.53;5088830;28;20274;-66
2022/02/07 11:48:38;;;;;;;5.37;1.73;;;;;;;4.77;83.64;99016.75;5090826;28;20248;-67
2022/02/07 11:51:10;;;;;;;6.17;1.70;;;;;;;4.83;83.23;99022.63;5088726;28;20223;-66
2022/02/07 11:53:40;;;;;;;6.40;1.90;;;;;;;4.87;84.61;99024.25;5086351;28;20316;-65
2022/02/07 11:56:12;;;;;;;7.57;1.73;;;;;;;4.87;84.89;99039.09;5090304;28;20306;-65
2022/02/07 11:58:52;;;;;;;3.13;1.30;;;;;;;4.91;85.13;99041.59;5090473;28;20245;-66
2022/02/07 12:01:43;;;;;;;3.87;1.57;;;;;;;4.88;83.11;99039.06;5087538;28;20276;-66
2022/02/07 12:04:11;;;;;;;3.73;1.67;;;;;;;4.86;85.94;99042.63;5067715;28;20217;-66
2022/02/07 12:06:38;;;;;;;4.37;2.00;;;;;;;4.90;85.69;99039.84;5089915;28;20239;-66
2022/02/07 12:09:19;;;;;;;2.40;1.50;;;;;;;4.90;83.66;99052.09;5072551;28;20705;-65
2022/02/07 12:11:46;;;;;;;6.47;2.07;;;;;;;4.92;86.09;99059.00;5053828;28;20262;-65
2022/02/07 12:14:29;;;;;;;6.23;1.60;;;;;;;4.97;85.39;99051.88;5053253;28;20625;-64
2022/02/07 12:16:56;;;;;;;5.53;1.70;;;;;;;5.00;84.35;99046.50;5053465;28;20712;-65
2022/02/07 12:19:35;;;;;;;8.40;2.00;;;;;;;5.12;84.22;99048.72;5056996;28;20322;-65
2022/02/07 12:22:12;;;;;;;5.67;2.27;;;;;;;5.19;82.60;99045.00;5054392;28;20599;-66
2022/02/07 12:24:52;;;;;;;1.90;1.50;;;;;;;5.23;81.85;99059.72;5054015;28;20218;-65
2022/02/07 12:27:20;;;;;;;5.70;1.50;;;;;;;5.32;83.41;99054.16;5056233;28;20300;-64
2022/02/07 12:30:05;;;;;;;6.70;1.77;;;;;;;5.42;84.79;99060.81;5062031;28;20232;-65
2022/02/07 12:32:32;;;;;;;4.67;1.77;;;;;;;5.40;83.85;99065.25;5073075;28;20236;-65
2022/02/07 12:35:00;;;;;;;4.83;1.43;;;;;;;5.42;82.47;99073.91;5073834;28;20678;-66
2022/02/07 12:37:26;;;;;;;6.87;1.93;;;;;;;5.48;79.37;99070.22;5071639;28;20219;-65
2022/02/07 12:39:52;;;;;;;4.30;1.50;;;;;;;5.42;81.63;99071.31;5072947;28;20228;-64
2022/02/07 12:42:21;;;;;;;6.20;1.63;;;;;;;5.42;82.61;99076.53;5072588;28;20231;-64
2022/02/07 12:44:48;;;;;;;4.17;1.67;;;;;;;5.44;82.96;99071.25;5072698;28;20221;-65
2022/02/07 12:47:15;;;;;;;3.80;1.30;;;;;;;5.52;82.57;99077.09;5071353;28;20243;-65
2022/02/07 12:49:47;;;;;;;5.30;1.77;;;;;;;5.41;82.38;99080.06;5073992;28;20698;-66
2022/02/07 12:52:15;;;;;;;8.77;2.03;;;;;;;5.54;82.56;99083.13;5073992;28;20690;-66
2022/02/07 12:54:41;;;;;;;4.83;1.60;;;;;;;5.56;80.86;99094.44;5073667;28;20225;-66
2022/02/07 12:57:08;;;;;;;4.17;1.57;;;;;;;5.59;81.43;99081.22;5074291;28;20585;-65
2022/02/07 12:59:34;;;;;;;3.10;1.50;;;;;;;5.58;82.94;99088.22;5074001;28;20220;-65
2022/02/07 13:02:01;;;;;;;4.87;2.13;;;;;;;5.59;83.16;99082.06;5074058;28;20226;-65
2022/02/07 13:04:27;;;;;;;7.77;1.67;;;;;;;5.49;83.61;99088.53;5075306;28;20221;-65
2022/02/07 13:06:56;;;;;;;3.43;1.40;;;;;;;5.53;82.39;99090.16;5074046;28;20251;-65
2022/02/07 13:09:29;;;;;;;7.20;1.80;;;;;;;5.47;82.39;99082.50;5074172;28;20221;-65